Time;durP1;ratioP1;P1;durP2;ratioP2;P2;SDS_P1;SDS_P2;PMS_P1;PMS_P2;Temp;Humidity;BMP_temperature;BMP_pressure;BME280_temperature;BME280_humidity;BME280_pressure;Samples;Min_cycle;Max_cycle;Signal;HPM_P1;HPM_P2
2022/04/12 00:02:22;;;;;;;8.23;6.20;;;;;;;-0.71;77.52;93817.69;5090419;28;20035;-37
2022/04/12 00:04:47;;;;;;;8.88;7.15;;;;;;;-0.74;77.74;93821.38;5090224;28;20024;-38
2022/04/12 00:07:14;;;;;;;10.57;5.22;;;;;;;-0.95;78.80;93825.91;5090312;28;20024;-39
2022/04/12 00:09:39;;;;;;;7.72;5.82;;;;;;;-0.96;78.10;93810.13;5090307;28;20145;-39
2022/04/12 00:12:05;;;;;;;9.80;6.10;;;;;;;-1.02;79.23;93822.84;5090541;28;20032;-39
2022/04/12 00:14:31;;;;;;;7.07;4.78;;;;;;;-1.22;80.48;93814.56;5103548;28;20026;-39
2022/04/12 00:19:02;;;;;;;8.25;5.30;;;;;;;-1.09;80.14;93812.34;5110869;28;20032;-39
2022/04/12 00:19:41;;;;;;;7.35;4.65;;;;;;;-0.85;78.46;93815.75;5110594;28;20119;-40
2022/04/12 00:22:07;;;;;;;7.90;4.88;;;;;;;-0.90;78.63;93817.13;5110530;28;20480;-39
2022/04/12 00:24:32;;;;;;;8.40;5.45;;;;;;;-0.85;78.69;93807.63;5110414;28;20019;-39
2022/04/12 00:26:58;;;;;;;9.32;6.60;;;;;;;-0.73;78.77;93803.88;5110532;28;20020;-39
2022/04/12 00:29:23;;;;;;;12.35;7.13;;;;;;;-0.88;78.58;93812.00;5110740;28;20031;-39
2022/04/12 00:31:48;;;;;;;9.75;6.28;;;;;;;-0.72;78.36;93804.63;5110787;28;20024;-39
2022/04/12 00:34:14;;;;;;;14.82;7.80;;;;;;;-0.70;77.42;93794.81;5110667;28;20470;-39
2022/04/12 00:36:39;;;;;;;9.57;7.00;;;;;;;-0.91;78.45;93798.66;5110742;28;20392;-39
2022/04/12 00:39:06;;;;;;;16.75;9.10;;;;;;;-0.84;77.75;93792.84;5110347;28;20011;-39
2022/04/12 00:41:35;;;;;;;13.52;9.18;;;;;;;-1.14;78.71;93797.47;5110280;28;20027;-39
2022/04/12 00:44:01;;;;;;;15.35;9.88;;;;;;;-1.14;79.81;93799.44;5110641;28;20020;-40
2022/04/12 00:46:27;;;;;;;17.25;12.05;;;;;;;-1.08;79.22;93803.75;5110582;28;20077;-39
2022/04/12 00:48:52;;;;;;;17.40;11.70;;;;;;;-1.06;79.40;93797.88;5110578;28;20518;-39
2022/04/12 00:51:18;;;;;;;16.05;9.68;;;;;;;-0.84;78.29;93798.25;5102393;28;20482;-39
2022/04/12 00:53:44;;;;;;;17.80;11.02;;;;;;;-1.04;78.25;93796.19;5090126;28;20044;-39
2022/04/12 00:56:09;;;;;;;15.95;9.82;;;;;;;-1.17;78.59;93792.97;5090184;28;20047;-40
2022/04/12 00:58:35;;;;;;;14.15;9.57;;;;;;;-1.06;78.61;93792.47;5089836;28;20393;-39
2022/04/12 01:01:00;;;;;;;18.52;11.02;;;;;;;-1.19;78.68;93787.28;5088666;28;20028;-39
2022/04/12 01:03:26;;;;;;;13.60;7.93;;;;;;;-1.42;79.35;93785.38;5090090;28;20111;-39
2022/04/12 01:05:52;;;;;;;13.43;8.50;;;;;;;-1.36;78.88;93771.94;5089019;28;20012;-39
2022/04/12 01:08:18;;;;;;;33.10;8.95;;;;;;;-1.13;78.56;93790.88;5089795;28;20032;-39
2022/04/12 01:10:45;;;;;;;12.00;7.93;;;;;;;-1.35;78.90;93786.97;5089975;28;20016;-39
2022/04/12 01:13:11;;;;;;;10.52;8.13;;;;;;;-1.49;78.62;93785.00;5091876;28;20107;-39
2022/04/12 01:15:36;;;;;;;8.30;6.53;;;;;;;-1.52;78.54;93773.88;5093275;28;20123;-39
2022/04/12 01:18:02;;;;;;;11.73;7.22;;;;;;;-1.63;79.78;93789.91;5093276;28;20028;-39
2022/04/12 01:20:31;;;;;;;10.55;6.90;;;;;;;-1.48;79.39;93787.25;5093614;28;20032;-39
2022/04/12 01:23:22;;;;;;;7.78;5.28;;;;;;;-1.42;78.19;93790.03;5093567;28;20502;-39
2022/04/12 01:25:48;;;;;;;7.93;6.10;;;;;;;-1.55;77.81;93761.25;5092279;28;20496;-38
2022/04/12 01:28:13;;;;;;;6.70;5.90;;;;;;;-1.49;78.59;93779.59;5093156;28;20032;-39
2022/04/12 01:30:39;;;;;;;7.63;6.25;;;;;;;-1.50;78.51;93786.97;5093411;28;20024;-39
2022/04/12 01:33:05;;;;;;;12.73;9.15;;;;;;;-1.58;78.53;93789.25;5093292;28;20034;-38
2022/04/12 01:35:31;;;;;;;9.02;7.15;;;;;;;-1.52;78.18;93791.34;5093254;28;20027;-39
2022/04/12 01:37:57;;;;;;;7.25;6.30;;;;;;;-1.59;78.76;93779.66;5093261;28;20408;-39
2022/04/12 01:40:22;;;;;;;12.30;7.57;;;;;;;-1.60;78.36;93783.56;5092893;28;20024;-39
2022/04/12 01:42:48;;;;;;;10.60;7.05;;;;;;;-1.59;79.27;93787.78;5092869;28;20024;-39
2022/04/12 01:45:14;;;;;;;8.00;5.93;;;;;;;-1.45;78.12;93789.00;5092997;28;20024;-39
2022/04/12 01:47:39;;;;;;;7.85;6.15;;;;;;;-1.54;78.14;93784.41;5101579;28;20492;-39
2022/04/12 01:50:06;;;;;;;11.13;6.50;;;;;;;-1.57;78.32;93785.34;5113159;28;20023;-38
2022/04/12 01:52:33;;;;;;;9.65;7.15;;;;;;;-1.44;77.98;93782.38;5113363;28;20023;-38
2022/04/12 01:54:58;;;;;;;9.60;7.05;;;;;;;-1.51;78.28;93790.84;5113341;28;20028;-38
2022/04/12 01:57:24;;;;;;;9.60;7.30;;;;;;;-1.65;78.18;93783.47;5113262;28;20458;-39
2022/04/12 01:59:49;;;;;;;11.50;8.40;;;;;;;-1.87;78.98;93791.88;5112946;28;20575;-39
2022/04/12 02:02:14;;;;;;;11.15;7.90;;;;;;;-1.87;79.36;93791.88;5113190;28;20031;-38
2022/04/12 02:04:40;;;;;;;9.07;6.88;;;;;;;-1.72;79.18;93784.56;5112764;28;20019;-39
2022/04/12 02:07:06;;;;;;;9.98;7.70;;;;;;;-1.77;78.74;93790.59;5112742;28;20066;-38
2022/04/12 02:09:31;;;;;;;9.80;5.60;;;;;;;-1.85;79.75;93770.50;5112721;28;20076;-38
2022/04/12 02:11:58;;;;;;;8.45;5.63;;;;;;;-2.02;78.70;93793.00;5112688;28;20023;-38
2022/04/12 02:14:24;;;;;;;9.80;5.38;;;;;;;-1.90;79.12;93794.72;5099495;28;20030;-39
2022/04/12 02:16:49;;;;;;;9.85;6.30;;;;;;;-1.82;78.47;93787.78;5092530;28;20031;-38
2022/04/12 02:19:15;;;;;;;9.85;6.95;;;;;;;-1.81;78.62;93795.44;5092460;28;20031;-38
2022/04/12 02:21:40;;;;;;;10.52;5.82;;;;;;;-1.87;78.67;93785.72;5092368;28;20146;-38
2022/04/12 02:24:06;;;;;;;8.43;5.97;;;;;;;-1.95;78.29;93788.00;5091967;28;20032;-38
2022/04/12 02:26:31;;;;;;;8.60;5.22;;;;;;;-2.16;79.30;93786.31;5092257;28;20028;-38
2022/04/12 02:28:57;;;;;;;13.27;6.88;;;;;;;-2.17;79.45;93776.72;5091984;28;20028;-38
2022/04/12 02:31:22;;;;;;;7.38;5.82;;;;;;;-2.14;79.22;93781.19;5091948;28;20020;-38
2022/04/12 02:33:48;;;;;;;9.68;6.35;;;;;;;-2.20;79.71;93783.03;5091895;28;20024;-38
2022/04/12 02:36:13;;;;;;;13.00;8.45;;;;;;;-2.13;79.60;93785.41;5091824;28;20039;-38
2022/04/12 02:38:38;;;;;;;9.88;5.03;;;;;;;-2.16;79.36;93778.19;5092121;28;20432;-38
2022/04/12 02:41:04;;;;;;;8.68;5.47;;;;;;;-2.01;78.59;93787.13;5091929;28;20390;-38
2022/04/12 02:43:29;;;;;;;6.63;4.90;;;;;;;-2.17;78.34;93787.53;5097023;28;20420;-39
2022/04/12 02:45:55;;;;;;;10.73;4.88;;;;;;;-2.25;78.72;93785.63;5112153;28;20023;-38
2022/04/12 02:48:20;;;;;;;10.20;4.82;;;;;;;-2.10;78.64;93781.78;5112276;28;20039;-38
2022/04/12 02:50:45;;;;;;;8.60;5.18;;;;;;;-2.16;78.16;93789.03;5112187;28;20038;-38
2022/04/12 02:53:11;;;;;;;9.40;5.47;;;;;;;-2.35;77.86;93744.34;5111861;28;20027;-38
2022/04/12 02:55:36;;;;;;;9.10;5.90;;;;;;;-2.30;79.08;93776.91;5112139;28;20023;-38
2022/04/12 02:58:02;;;;;;;13.13;8.48;;;;;;;-2.39;79.43;93781.63;5111679;28;20160;-38
2022/04/12 03:00:28;;;;;;;12.52;7.70;;;;;;;-2.34;78.72;93787.16;5112069;28;20028;-38
2022/04/12 03:02:53;;;;;;;10.77;6.45;;;;;;;-2.23;78.07;93778.53;5111715;28;20038;-38
2022/04/12 03:05:19;;;;;;;11.25;6.93;;;;;;;-2.25;78.25;93780.22;5111894;28;20020;-38
2022/04/12 03:07:44;;;;;;;12.32;8.02;;;;;;;-2.45;78.74;93789.59;5111591;28;20092;-38
2022/04/12 03:10:10;;;;;;;12.23;7.57;;;;;;;-2.49;79.46;93785.59;5110669;28;20026;-38
2022/04/12 03:12:35;;;;;;;12.75;8.07;;;;;;;-2.36;80.12;93786.13;5111536;28;20030;-38
2022/04/12 03:15:02;;;;;;;14.25;8.40;;;;;;;-2.34;78.51;93789.13;5093077;28;20040;-38
2022/04/12 03:17:28;;;;;;;13.00;8.93;;;;;;;-2.49;78.27;93786.31;5091079;28;20070;-38
2022/04/12 03:19:54;;;;;;;10.63;8.30;;;;;;;-2.52;79.00;93789.19;5091269;28;20084;-38
2022/04/12 03:22:19;;;;;;;16.23;9.75;;;;;;;-2.61;77.87;93764.91;5091370;28;20405;-38
2022/04/12 03:24:45;;;;;;;11.90;7.97;;;;;;;-2.71;78.00;93795.88;5090823;28;20606;-38
2022/04/12 03:27:10;;;;;;;13.07;8.57;;;;;;;-2.85;79.02;93801.91;5091223;28;20050;-39
2022/04/12 03:29:36;;;;;;;33.38;15.07;;;;;;;-2.88;79.24;93790.03;5091168;28;20049;-38
2022/04/12 03:32:01;;;;;;;48.97;21.30;;;;;;;-2.82;79.25;93798.28;5091119;28;20028;-38
2022/04/12 03:34:27;;;;;;;35.60;16.42;;;;;;;-2.83;79.49;93804.88;5090651;28;20020;-38
2022/04/12 03:36:52;;;;;;;32.00;14.45;;;;;;;-2.93;80.13;93803.41;5090350;28;20024;-38
2022/04/12 03:39:18;;;;;;;23.88;13.50;;;;;;;-2.94;80.35;93794.56;5092313;28;20028;-38
2022/04/12 03:41:45;;;;;;;29.60;14.63;;;;;;;-2.95;80.10;93800.44;5111278;28;20446;-38
2022/04/12 03:44:11;;;;;;;14.38;7.97;;;;;;;-2.82;79.87;93796.34;5111283;28;20034;-38
2022/04/12 03:46:36;;;;;;;15.30;8.93;;;;;;;-2.80;79.60;93809.41;5110932;28;20106;-39
2022/04/12 03:49:02;;;;;;;14.85;9.00;;;;;;;-2.85;79.25;93805.34;5110850;28;20042;-38
2022/04/12 03:51:27;;;;;;;14.48;8.95;;;;;;;-2.69;78.82;93806.97;5111186;28;20027;-38
2022/04/12 03:53:53;;;;;;;13.52;9.10;;;;;;;-2.55;78.21;93806.31;5111143;28;20031;-38
2022/04/12 03:56:19;;;;;;;19.02;10.88;;;;;;;-2.76;78.34;93804.56;5111142;28;20026;-39
2022/04/12 03:58:44;;;;;;;28.50;11.77;;;;;;;-2.59;78.60;93811.13;5110683;28;20038;-39
2022/04/12 04:01:10;;;;;;;28.45;14.35;;;;;;;-2.51;78.04;93807.66;5111055;28;20110;-39
2022/04/12 04:03:35;;;;;;;195.00;67.85;;;;;;;-2.67;78.40;93808.03;5111028;28;20047;-38
2022/04/12 04:06:02;;;;;;;149.85;59.88;;;;;;;-2.69;78.86;93815.06;5110688;28;20143;-39
2022/04/12 04:08:27;;;;;;;26.55;14.38;;;;;;;-3.02;79.49;93793.38;5110748;28;20038;-38
2022/04/12 04:10:53;;;;;;;18.05;9.98;;;;;;;-2.93;79.40;93817.69;5109465;28;20023;-39
2022/04/12 04:13:18;;;;;;;15.52;9.65;;;;;;;-2.96;79.72;93817.81;5106968;28;20020;-38
2022/04/12 04:15:45;;;;;;;20.05;10.35;;;;;;;-2.84;80.24;93823.06;5090005;28;20555;-39
2022/04/12 04:18:11;;;;;;;14.45;9.63;;;;;;;-2.73;79.06;93819.91;5090530;28;20028;-39
2022/04/12 04:20:36;;;;;;;14.82;9.48;;;;;;;-3.17;79.18;93784.41;5090218;28;20508;-39
2022/04/12 04:23:02;;;;;;;15.10;9.50;;;;;;;-2.87;79.96;93826.69;5090197;28;20032;-39
2022/04/12 04:25:28;;;;;;;8.77;6.22;;;;;;;-2.87;79.78;93793.50;5090430;28;20056;-39
2022/04/12 04:27:53;;;;;;;12.77;8.02;;;;;;;-2.67;78.97;93826.19;5090364;28;20067;-39
2022/04/12 04:30:19;;;;;;;16.80;9.65;;;;;;;-2.89;78.22;93825.63;5090482;28;20032;-39
2022/04/12 04:32:45;;;;;;;21.55;13.20;;;;;;;-2.84;78.51;93831.19;5090379;28;20048;-39
2022/04/12 04:35:11;;;;;;;17.48;11.23;;;;;;;-2.74;78.29;93838.06;5090101;28;20028;-39
2022/04/12 04:37:44;;;;;;;24.73;13.70;;;;;;;-2.63;78.73;93826.75;5108745;28;20031;-38
2022/04/12 04:40:13;;;;;;;56.75;26.92;;;;;;;-2.62;79.11;93806.66;5110686;28;20032;-39
2022/04/12 04:42:39;;;;;;;44.53;23.55;;;;;;;-2.24;77.99;93820.31;5110282;28;20027;-38
2022/04/12 04:45:05;;;;;;;40.00;23.60;;;;;;;-2.15;77.41;93830.34;5108916;28;20024;-39
2022/04/12 04:47:31;;;;;;;48.40;26.45;;;;;;;-2.05;77.30;93826.38;5110675;28;20058;-39
2022/04/12 04:49:56;;;;;;;50.03;28.55;;;;;;;-1.89;77.43;93832.19;5114578;28;20484;-39
2022/04/12 05:04:04;;;;;;;12.95;8.98;;;;;;;-0.80;75.32;93834.03;5063989;28;20626;-38
2022/04/12 05:06:29;;;;;;;14.52;9.63;;;;;;;-0.92;76.56;93843.22;5064138;28;20028;-38
2022/04/12 05:08:55;;;;;;;16.23;9.57;;;;;;;-1.02;76.98;93831.69;5077662;27;20031;-38
2022/04/12 05:11:20;;;;;;;18.20;10.07;;;;;;;-0.91;76.99;93837.31;5169868;27;20023;-39
2022/04/12 05:13:46;;;;;;;14.13;9.90;;;;;;;-0.85;76.63;93842.84;5128686;27;20041;-38
2022/04/12 05:16:11;;;;;;;17.27;9.82;;;;;;;-0.82;76.97;93833.78;5064165;28;20028;-38
2022/04/12 05:18:37;;;;;;;29.55;17.38;;;;;;;-0.67;76.79;93842.66;5063886;27;20473;-38
2022/04/12 05:21:02;;;;;;;32.05;16.33;;;;;;;-0.74;77.24;93837.63;5064067;28;20040;-38
2022/04/12 05:23:28;;;;;;;18.42;11.02;;;;;;;-0.61;76.74;93827.25;5064133;28;20020;-38
2022/04/12 05:25:54;;;;;;;14.60;10.32;;;;;;;-0.65;77.17;93839.50;5073062;27;20037;-38
2022/04/12 05:28:23;;;;;;;17.83;11.00;;;;;;;-0.60;77.91;93844.25;5169855;27;20467;-39
2022/04/12 05:30:48;;;;;;;22.17;11.43;;;;;;;-0.51;77.53;93834.06;5169745;27;20414;-39
2022/04/12 05:33:14;;;;;;;52.33;33.40;;;;;;;-0.35;77.29;93841.75;5099086;27;20021;-39
2022/04/12 05:35:40;;;;;;;70.20;35.70;;;;;;;-0.22;77.48;93830.59;5063897;28;20037;-39
2022/04/12 05:38:06;;;;;;;36.47;19.75;;;;;;;-0.05;77.76;93839.72;5063719;28;20024;-39
2022/04/12 05:40:32;;;;;;;37.17;19.98;;;;;;;0.08;76.90;93837.47;5063770;28;20103;-40
2022/04/12 05:42:58;;;;;;;41.35;19.50;;;;;;;0.24;76.93;93845.09;5063785;27;20397;-40
2022/04/12 05:45:23;;;;;;;56.53;29.58;;;;;;;0.61;75.85;93842.59;5063400;28;20024;-40
2022/04/12 05:47:51;;;;;;;31.60;16.60;;;;;;;1.05;73.87;93848.59;5063682;28;20046;-39
2022/04/12 05:50:18;;;;;;;42.72;22.33;;;;;;;1.21;74.26;93839.84;5063225;28;20571;-39
2022/04/12 05:52:44;;;;;;;31.35;16.15;;;;;;;1.59;73.46;93841.47;5063266;28;20093;-39
2022/04/12 05:55:15;;;;;;;32.83;18.77;;;;;;;1.99;72.03;93841.28;5063272;28;20482;-38
2022/04/12 05:57:52;;;;;;;29.95;18.52;;;;;;;2.57;69.00;93836.47;5063320;28;20032;-39
2022/04/12 06:00:19;;;;;;;25.42;13.85;;;;;;;3.03;67.64;93829.47;5084824;27;20025;-40
2022/04/12 06:02:48;;;;;;;21.60;10.05;;;;;;;3.65;65.64;93838.56;5168400;27;20050;-40
2022/04/12 06:05:14;;;;;;;15.88;10.00;;;;;;;4.59;63.75;93842.00;5154418;27;20026;-40
2022/04/12 06:07:41;;;;;;;17.30;9.00;;;;;;;5.44;61.27;93843.94;5155179;27;20057;-40
2022/04/12 06:10:07;;;;;;;9.30;6.28;;;;;;;6.15;57.59;93839.25;5155048;27;20022;-40
2022/04/12 06:12:32;;;;;;;6.53;5.05;;;;;;;6.78;55.01;93841.69;5155003;27;20027;-38
2022/04/12 06:14:58;;;;;;;9.05;6.07;;;;;;;7.52;53.22;93828.09;5063068;27;20036;-39
2022/04/12 06:17:34;;;;;;;8.95;5.40;;;;;;;8.50;51.20;93833.91;5049874;28;20410;-38
2022/04/12 06:20:11;;;;;;;8.07;5.32;;;;;;;9.44;48.11;93837.66;5049777;28;20029;-38
2022/04/12 06:22:37;;;;;;;6.07;4.50;;;;;;;10.09;44.93;93845.03;5049717;28;20028;-38
2022/04/12 06:25:03;;;;;;;5.78;4.40;;;;;;;10.42;43.42;93833.97;5049667;28;20470;-40
2022/04/12 06:27:36;;;;;;;6.38;4.38;;;;;;;11.11;43.47;93844.28;5049689;28;20059;-40
2022/04/12 06:30:06;;;;;;;6.18;5.20;;;;;;;11.16;40.87;93850.94;5049369;28;20513;-40
2022/04/12 06:32:33;;;;;;;10.18;8.85;;;;;;;11.12;41.33;93850.56;5049125;28;20021;-37
2022/04/12 06:34:59;;;;;;;8.60;7.05;;;;;;;10.90;42.54;93853.88;5049637;28;20033;-39
2022/04/12 06:37:25;;;;;;;10.43;6.68;;;;;;;10.46;41.92;93859.22;5049480;28;20461;-39
2022/04/12 06:39:51;;;;;;;14.00;9.00;;;;;;;10.05;43.88;93856.38;5049357;28;20093;-40
2022/04/12 06:42:17;;;;;;;8.40;6.38;;;;;;;10.00;44.73;93864.81;5049101;28;20033;-40
2022/04/12 06:44:42;;;;;;;12.35;5.85;;;;;;;10.07;45.15;93855.88;5049038;28;20025;-40
2022/04/12 06:47:08;;;;;;;11.50;7.70;;;;;;;10.27;44.20;93857.94;5049116;28;20028;-41
2022/04/12 06:49:34;;;;;;;4.53;3.38;;;;;;;10.35;39.17;93861.53;5049284;28;20025;-40
2022/04/12 06:52:02;;;;;;;6.25;3.65;;;;;;;10.02;39.47;93854.72;5049202;28;20021;-40
2022/04/12 06:54:27;;;;;;;3.92;3.25;;;;;;;11.03;41.61;93851.03;5048959;28;20025;-41
2022/04/12 06:56:53;;;;;;;6.00;4.57;;;;;;;12.49;38.30;93850.63;5048871;28;20036;-40
2022/04/12 06:59:18;;;;;;;9.32;5.22;;;;;;;14.11;35.68;93850.03;5049216;28;20021;-41
2022/04/12 07:01:44;;;;;;;5.68;3.85;;;;;;;15.13;33.00;93857.38;5132272;27;20471;-41
2022/04/12 07:04:09;;;;;;;9.07;5.78;;;;;;;15.84;32.55;93845.19;5154118;27;20475;-39
2022/04/12 07:06:35;;;;;;;8.80;4.72;;;;;;;17.04;31.37;93844.91;5153665;27;20536;-39
2022/04/12 07:09:01;;;;;;;5.28;3.70;;;;;;;17.95;27.99;93846.88;5153943;27;20031;-39
2022/04/12 07:11:26;;;;;;;5.15;3.50;;;;;;;18.77;26.54;93843.72;5153791;27;20438;-39
2022/04/12 07:13:51;;;;;;;9.07;3.00;;;;;;;19.63;25.29;93840.53;5109868;27;20029;-38
2022/04/12 07:16:17;;;;;;;5.00;3.10;;;;;;;20.09;24.93;93847.72;5047540;28;20504;-38
2022/04/12 07:18:42;;;;;;;3.25;2.50;;;;;;;21.10;23.25;93846.50;5048635;28;20077;-38
2022/04/12 07:21:08;;;;;;;3.72;2.72;;;;;;;21.73;22.74;93853.81;5048461;28;20082;-38
2022/04/12 07:23:36;;;;;;;3.17;2.40;;;;;;;22.02;21.87;93851.34;5048478;28;20106;-38
2022/04/12 07:26:05;;;;;;;2.90;2.33;;;;;;;22.48;22.43;93851.19;5048480;28;20037;-37
2022/04/12 07:28:31;;;;;;;4.50;2.30;;;;;;;22.60;21.46;93835.00;5048297;28;20040;-38
2022/04/12 07:30:56;;;;;;;7.30;3.45;;;;;;;23.11;19.40;93849.03;5048609;28;20029;-38
2022/04/12 07:33:22;;;;;;;7.28;4.72;;;;;;;22.74;22.09;93837.16;5048308;28;20021;-38
2022/04/12 07:35:47;;;;;;;4.55;2.97;;;;;;;22.89;19.92;93836.56;5048534;28;20085;-37
2022/04/12 07:38:13;;;;;;;5.13;2.88;;;;;;;23.11;20.09;93840.56;5048222;28;20097;-37
2022/04/12 07:40:38;;;;;;;5.80;2.92;;;;;;;22.28;18.58;93844.44;5048451;28;20032;-37
2022/04/12 07:43:04;;;;;;;3.88;3.30;;;;;;;23.18;20.90;93839.53;5048449;28;20238;-37
2022/04/12 07:45:29;;;;;;;4.72;2.80;;;;;;;22.75;21.07;93824.53;5048152;28;20049;-38
2022/04/12 07:47:55;;;;;;;5.45;3.60;;;;;;;23.14;20.97;93839.34;5048017;28;20033;-38
2022/04/12 07:50:21;;;;;;;4.00;3.40;;;;;;;23.90;19.42;93837.00;5048401;28;20028;-37
2022/04/12 07:52:47;;;;;;;4.13;3.38;;;;;;;23.07;19.37;93835.47;5047903;28;20021;-38
2022/04/12 07:55:12;;;;;;;5.28;2.83;;;;;;;23.40;18.76;93831.56;5048299;28;20029;-37
2022/04/12 07:57:38;;;;;;;4.70;2.60;;;;;;;23.46;19.36;93834.69;5048168;28;20481;-38
2022/04/12 08:00:04;;;;;;;3.80;2.95;;;;;;;23.68;18.37;93833.78;5058726;27;20040;-38
2022/04/12 08:02:29;;;;;;;4.50;3.78;;;;;;;23.20;19.27;93836.84;5152581;27;20030;-37
2022/04/12 08:04:55;;;;;;;4.97;3.10;;;;;;;22.98;20.43;93839.19;5152533;27;20023;-37
2022/04/12 08:07:20;;;;;;;4.80;3.78;;;;;;;22.29;20.14;93834.63;5152582;27;20435;-37
2022/04/12 08:09:46;;;;;;;3.72;3.28;;;;;;;22.99;20.35;93835.03;5152389;27;20030;-37
2022/04/12 08:12:12;;;;;;;4.90;3.25;;;;;;;23.41;18.85;93844.31;5152695;27;20019;-38
2022/04/12 08:14:37;;;;;;;6.50;3.40;;;;;;;22.89;20.19;93833.75;5076119;27;20120;-38
2022/04/12 08:17:03;;;;;;;5.95;3.38;;;;;;;23.32;19.64;93838.22;5047663;28;20040;-38
2022/04/12 08:19:29;;;;;;;5.25;3.53;;;;;;;23.25;18.98;93830.06;5047641;28;20053;-38
2022/04/12 08:21:54;;;;;;;5.75;3.55;;;;;;;23.94;18.75;93829.47;5046187;28;20029;-38
2022/04/12 08:24:21;;;;;;;8.27;4.72;;;;;;;23.77;18.96;93824.38;5047687;28;20032;-37
2022/04/12 08:26:47;;;;;;;5.28;4.18;;;;;;;24.34;19.35;93824.41;5047115;28;20028;-38
2022/04/12 08:29:12;;;;;;;6.57;4.63;;;;;;;22.57;19.82;93815.78;5047543;28;20036;-38
2022/04/12 08:31:39;;;;;;;5.95;4.57;;;;;;;21.19;21.39;93828.06;5047702;28;20029;-37
2022/04/12 08:34:05;;;;;;;6.30;4.20;;;;;;;21.43;21.41;93810.59;5047669;28;20064;-38
2022/04/12 08:36:30;;;;;;;4.95;4.22;;;;;;;22.31;21.28;93814.31;5047526;28;20420;-38
2022/04/12 08:38:56;;;;;;;6.03;4.28;;;;;;;22.58;20.82;93803.19;5047619;28;20036;-39
2022/04/12 08:41:23;;;;;;;6.90;3.80;;;;;;;23.34;21.09;93813.00;5047688;28;20481;-38
2022/04/12 08:43:54;;;;;;;3.88;3.45;;;;;;;23.68;19.10;93811.22;5047230;28;20029;-37
2022/04/12 08:46:20;;;;;;;4.20;3.13;;;;;;;23.96;17.66;93807.03;5047624;28;20025;-38
2022/04/12 08:48:46;;;;;;;4.00;2.88;;;;;;;24.15;19.01;93802.31;5046083;28;20029;-38
2022/04/12 08:51:12;;;;;;;2.63;2.42;;;;;;;24.43;18.10;93812.16;5046413;28;20033;-39
2022/04/12 08:53:37;;;;;;;3.50;2.58;;;;;;;24.34;18.65;93804.66;5047446;28;20029;-38
2022/04/12 08:56:03;;;;;;;3.63;2.85;;;;;;;24.48;18.87;93813.81;5045990;28;20493;-38
2022/04/12 08:58:28;;;;;;;4.72;3.30;;;;;;;23.96;18.16;93818.31;5047083;28;20037;-38
2022/04/12 09:00:55;;;;;;;3.65;2.65;;;;;;;24.56;18.36;93808.56;5094102;27;20233;-38
2022/04/12 09:03:20;;;;;;;4.40;2.97;;;;;;;24.77;17.20;93799.72;5151751;27;20475;-37
2022/04/12 09:05:45;;;;;;;5.25;3.80;;;;;;;25.43;17.72;93799.94;5151797;27;20114;-38
2022/04/12 09:08:28;;;;;;;3.58;2.58;;;;;;;24.91;18.31;93796.78;5152071;27;20022;-38
2022/04/12 09:10:59;;;;;;;4.70;2.72;;;;;;;24.97;17.65;93799.91;5151968;27;20038;-38
2022/04/12 09:13:25;;;;;;;10.07;3.08;;;;;;;24.33;18.41;93791.91;5127735;27;20168;-38
2022/04/12 09:15:50;;;;;;;3.85;2.47;;;;;;;24.92;17.82;93787.72;5047212;28;20494;-39
2022/04/12 09:18:34;;;;;;;7.00;5.20;;;;;;;25.69;17.17;93786.22;5047198;28;20079;-38
2022/04/12 09:21:15;;;;;;;4.25;3.85;;;;;;;25.61;18.39;93785.16;5046903;28;20057;-38
2022/04/12 09:23:55;;;;;;;3.92;2.40;;;;;;;25.38;17.42;93786.97;5047226;28;20059;-38
2022/04/12 09:26:31;;;;;;;4.85;3.53;;;;;;;24.90;18.82;93773.50;5046845;28;20033;-38
2022/04/12 09:28:58;;;;;;;3.40;2.50;;;;;;;25.23;16.28;93767.91;5046959;28;20021;-38
2022/04/12 09:31:24;;;;;;;8.68;6.60;;;;;;;25.48;18.34;93769.75;5046988;28;20112;-38
2022/04/12 09:33:52;;;;;;;3.97;2.90;;;;;;;25.03;18.62;93772.69;5046858;28;20025;-38
2022/04/12 09:36:18;;;;;;;4.60;3.20;;;;;;;24.27;19.60;93760.56;5046919;28;20025;-38
2022/04/12 09:38:45;;;;;;;4.45;2.95;;;;;;;24.89;20.95;93772.03;5047482;28;20025;-38
2022/04/12 09:41:19;;;;;;;5.75;3.42;;;;;;;24.78;19.31;93767.25;5050093;28;20054;-38
2022/04/12 09:43:51;;;;;;;4.75;2.80;;;;;;;24.71;18.19;93762.69;5050429;28;20029;-39
2022/04/12 09:46:17;;;;;;;6.22;3.50;;;;;;;24.41;19.72;93758.41;5050249;28;20021;-38
2022/04/12 09:48:50;;;;;;;3.75;3.15;;;;;;;24.66;19.36;93758.22;5049904;28;20038;-38
2022/04/12 09:51:17;;;;;;;3.25;2.58;;;;;;;24.86;18.27;93755.63;5050165;28;20029;-38
2022/04/12 09:53:45;;;;;;;4.32;2.70;;;;;;;25.04;18.94;93754.34;5050133;28;20458;-38
2022/04/12 09:56:20;;;;;;;3.27;2.87;;;;;;;24.89;17.06;93748.69;5049948;28;20044;-39
2022/04/12 09:58:48;;;;;;;3.10;2.60;;;;;;;24.95;17.82;93746.88;5050066;28;20149;-38
2022/04/12 10:01:15;;;;;;;3.85;3.10;;;;;;;25.08;18.93;93736.88;5111248;27;20102;-39
2022/04/12 10:03:43;;;;;;;4.50;3.45;;;;;;;25.13;18.76;93742.03;5154797;27;20039;-38
2022/04/12 10:06:09;;;;;;;;;;;;;;;25.12;17.96;93731.38;5155809;27;20407;-39
2022/04/12 10:08:35;;;;;;;7.97;2.93;;;;;;;25.16;17.96;93726.66;5154845;27;19910;-38
2022/04/12 10:11:01;;;;;;;4.25;3.78;;;;;;;25.06;18.24;93717.00;5154998;27;20431;-38
2022/04/12 10:13:26;;;;;;;4.68;3.00;;;;;;;24.29;19.89;93718.34;5128054;27;20489;-38
2022/04/12 10:15:52;;;;;;;5.50;2.92;;;;;;;24.98;18.75;93717.34;5049520;28;20044;-39
2022/04/12 10:18:19;;;;;;;3.65;2.40;;;;;;;24.41;18.18;93708.34;5048224;28;20081;-38
2022/04/12 10:20:44;;;;;;;4.72;2.08;;;;;;;24.78;18.63;93710.78;5049414;28;20040;-38
2022/04/12 10:23:10;;;;;;;3.92;2.45;;;;;;;25.03;18.46;93706.97;5049408;28;20021;-38
2022/04/12 10:25:36;;;;;;;8.40;4.40;;;;;;;24.78;18.38;93688.19;5048278;28;20061;-39
2022/04/12 10:28:04;;;;;;;6.95;3.70;;;;;;;24.46;19.75;93704.38;5049336;28;20036;-38
2022/04/12 10:30:30;;;;;;;3.08;2.30;;;;;;;24.55;19.83;93699.81;5049644;28;20025;-39
2022/04/12 10:33:16;;;;;;;3.97;2.22;;;;;;;25.19;16.91;93696.34;5049400;28;20029;-40
2022/04/12 10:35:45;;;;;;;3.55;2.30;;;;;;;24.78;19.12;93697.41;5049407;28;20412;-39
2022/04/12 10:38:11;;;;;;;3.30;2.00;;;;;;;24.57;18.97;93697.81;5049567;28;20037;-39
2022/04/12 10:40:45;;;;;;;4.32;2.08;;;;;;;24.65;18.58;93688.97;5049207;28;20029;-39
2022/04/12 10:43:15;;;;;;;3.38;2.50;;;;;;;24.74;17.67;93691.56;5049241;28;20531;-39
2022/04/12 10:45:48;;;;;;;2.67;2.13;;;;;;;24.65;18.42;93686.16;5049331;28;20409;-38
2022/04/12 10:48:21;;;;;;;1.88;1.77;;;;;;;24.68;17.65;93679.97;5047883;28;20066;-39
2022/04/12 10:50:47;;;;;;;2.83;2.00;;;;;;;25.17;18.24;93688.53;5049149;28;20504;-39
2022/04/12 10:53:13;;;;;;;2.40;1.67;;;;;;;25.26;17.10;93683.97;5047743;28;20040;-39
2022/04/12 10:55:43;;;;;;;3.08;1.85;;;;;;;25.46;18.07;93677.13;5048990;28;20029;-39
2022/04/12 10:58:13;;;;;;;5.20;2.53;;;;;;;24.58;16.82;93687.25;5048894;28;20029;-39
2022/04/12 11:00:42;;;;;;;2.63;1.75;;;;;;;24.06;16.64;93672.13;5048791;28;20029;-38
2022/04/12 11:03:08;;;;;;;2.90;1.73;;;;;;;23.40;17.78;93665.31;5048721;28;20045;-38
2022/04/12 11:05:37;;;;;;;2.55;1.88;;;;;;;22.78;18.64;93669.19;5049096;28;20033;-38
2022/04/12 11:08:14;;;;;;;2.65;1.85;;;;;;;22.82;20.20;93663.03;5049104;28;20028;-37
2022/04/12 11:10:54;;;;;;;3.75;2.60;;;;;;;22.63;20.49;93666.25;5048804;28;20036;-39
2022/04/12 11:13:21;;;;;;;2.65;1.90;;;;;;;22.98;20.93;93655.41;5048511;27;20017;-38
2022/04/12 11:15:54;;;;;;;2.22;1.92;;;;;;;23.21;20.47;93664.38;5048936;28;20112;-39
2022/04/12 11:18:20;;;;;;;4.88;2.25;;;;;;;22.99;21.04;93654.06;5049011;28;20029;-39
2022/04/12 11:21:01;;;;;;;2.97;2.10;;;;;;;22.93;20.75;93656.56;5048640;28;20028;-39
2022/04/12 11:23:52;;;;;;;4.38;3.28;;;;;;;22.51;19.67;93646.59;5048598;28;20028;-40
2022/04/12 11:26:38;;;;;;;9.68;5.95;;;;;;;22.25;20.55;93650.81;5047175;28;20033;-41
2022/04/12 11:29:09;;;;;;;3.72;2.58;;;;;;;21.78;20.62;93647.53;5048538;28;20033;-38
2022/04/12 11:31:54;;;;;;;4.18;2.33;;;;;;;21.32;23.97;93647.69;5048651;28;20051;-40
2022/04/12 11:34:25;;;;;;;1.70;1.60;;;;;;;21.00;19.24;93638.13;5048685;28;20467;-40
2022/04/12 11:36:54;;;;;;;5.15;1.80;;;;;;;20.84;22.20;93643.50;5048606;28;20053;-38
2022/04/12 11:39:30;;;;;;;3.65;2.00;;;;;;;20.95;22.21;93634.34;5048497;28;20021;-38
2022/04/12 11:42:15;;;;;;;3.13;2.22;;;;;;;20.95;22.78;93631.53;5048558;28;20104;-38